sensor_id;sensor_type;location;lat;lon;timestamp;temperature;humidity
40249;DHT22;25969;49.970;11.062;2022-08-21T04:23:40;13.90;99.90
40249;DHT22;25969;49.970;11.062;2022-08-21T04:33:40;13.90;99.90
40249;DHT22;25969;49.970;11.062;2022-08-21T04:43:41;13.80;99.90
40249;DHT22;25969;49.970;11.062;2022-08-21T05:04:09;13.60;99.90
40249;DHT22;25969;49.970;11.062;2022-08-21T05:14:12;13.60;99.90
40249;DHT22;25969;49.970;11.062;2022-08-21T05:24:12;13.90;99.90
40249;DHT22;25969;49.970;11.062;2022-08-21T05:34:15;14.20;99.90
40249;DHT22;25969;49.970;11.062;2022-08-21T05:44:17;14.60;99.90
40249;DHT22;25969;49.970;11.062;2022-08-21T05:54:18;15.00;99.90
40249;DHT22;25969;49.970;11.062;2022-08-21T06:04:19;15.70;99.90
40249;DHT22;25969;49.970;11.062;2022-08-21T06:14:20;15.50;99.90
40249;DHT22;25969;49.970;11.062;2022-08-21T06:24:20;15.40;99.90
40249;DHT22;25969;49.970;11.062;2022-08-21T06:34:21;15.70;99.90
40249;DHT22;25969;49.970;11.062;2022-08-21T06:44:22;16.10;99.90
40249;DHT22;25969;49.970;11.062;2022-08-21T06:54:23;16.50;99.90
40249;DHT22;25969;49.970;11.062;2022-08-21T07:04:23;16.70;99.90
40249;DHT22;25969;49.970;11.062;2022-08-21T07:14:24;17.50;99.90
40249;DHT22;25969;49.970;11.062;2022-08-21T07:24:27;18.40;99.90
40249;DHT22;25969;49.970;11.062;2022-08-21T07:34:27;18.70;99.90
40249;DHT22;25969;49.970;11.062;2022-08-21T07:44:28;19.10;99.90
40249;DHT22;25969;49.970;11.062;2022-08-21T07:54:29;19.80;99.90
40249;DHT22;25969;49.970;11.062;2022-08-21T08:04:29;21.40;99.90
40249;DHT22;25969;49.970;11.062;2022-08-21T08:14:30;22.50;99.90
40249;DHT22;25969;49.970;11.062;2022-08-21T08:24:31;24.40;99.90
40249;DHT22;25969;49.970;11.062;2022-08-21T08:34:36;24.10;99.90
40249;DHT22;25969;49.970;11.062;2022-08-21T08:44:37;23.10;99.90
40249;DHT22;25969;49.970;11.062;2022-08-21T08:54:44;25.30;99.90
40249;DHT22;25969;49.970;11.062;2022-08-21T09:04:47;26.00;98.90
40249;DHT22;25969;49.970;11.062;2022-08-21T09:25:12;26.80;92.90
40249;DHT22;25969;49.970;11.062;2022-08-21T09:35:17;28.40;90.80
40249;DHT22;25969;49.970;11.062;2022-08-21T09:45:20;29.10;80.20
40249;DHT22;25969;49.970;11.062;2022-08-21T09:55:30;28.90;77.20
40249;DHT22;25969;49.970;11.062;2022-08-21T10:05:53;28.70;75.90
40249;DHT22;25969;49.970;11.062;2022-08-21T10:36:21;29.50;67.60
40249;DHT22;25969;49.970;11.062;2022-08-21T10:46:55;30.10;63.80
40249;DHT22;25969;49.970;11.062;2022-08-21T10:57:11;30.30;62.60
40249;DHT22;25969;49.970;11.062;2022-08-21T11:07:48;32.30;52.20
40249;DHT22;25969;49.970;11.062;2022-08-21T11:18:00;34.40;48.80
40249;DHT22;25969;49.970;11.062;2022-08-21T11:28:15;34.20;47.80
40249;DHT22;25969;49.970;11.062;2022-08-21T11:38:41;37.00;39.80
40249;DHT22;25969;49.970;11.062;2022-08-21T11:59:08;40.80;27.50
40249;DHT22;25969;49.970;11.062;2022-08-21T12:29:29;44.80;24.80
40249;DHT22;25969;49.970;11.062;2022-08-21T12:39:33;45.30;23.50
40249;DHT22;25969;49.970;11.062;2022-08-21T12:49:43;44.30;23.60
40249;DHT22;25969;49.970;11.062;2022-08-21T12:59:58;42.80;24.10
40249;DHT22;25969;49.970;11.062;2022-08-21T13:10:07;50.40;20.60
40249;DHT22;25969;49.970;11.062;2022-08-21T13:20:23;40.60;25.80
40249;DHT22;25969;49.970;11.062;2022-08-21T13:30:24;45.40;23.20
40249;DHT22;25969;49.970;11.062;2022-08-21T13:40:29;47.20;23.20
40249;DHT22;25969;49.970;11.062;2022-08-21T13:50:34;49.40;22.00
40249;DHT22;25969;49.970;11.062;2022-08-21T14:00:48;47.70;22.40
40249;DHT22;25969;49.970;11.062;2022-08-21T14:10:51;46.80;23.20
40249;DHT22;25969;49.970;11.062;2022-08-21T14:21:03;42.20;24.20
40249;DHT22;25969;49.970;11.062;2022-08-21T14:41:18;37.30;29.50
40249;DHT22;25969;49.970;11.062;2022-08-21T14:51:19;38.80;27.40
40249;DHT22;25969;49.970;11.062;2022-08-21T15:01:21;40.30;26.40
40249;DHT22;25969;49.970;11.062;2022-08-21T15:11:23;39.60;26.10
40249;DHT22;25969;49.970;11.062;2022-08-21T15:21:24;40.80;25.40
40249;DHT22;25969;49.970;11.062;2022-08-21T15:31:26;40.40;25.70
40249;DHT22;25969;49.970;11.062;2022-08-21T15:41:29;39.90;25.50
40249;DHT22;25969;49.970;11.062;2022-08-21T15:51:29;37.20;27.50
40249;DHT22;25969;49.970;11.062;2022-08-21T16:01:30;37.70;28.00
40249;DHT22;25969;49.970;11.062;2022-08-21T16:11:32;34.60;32.20
40249;DHT22;25969;49.970;11.062;2022-08-21T16:21:34;35.20;31.60
40249;DHT22;25969;49.970;11.062;2022-08-21T16:31:35;36.60;29.80
40249;DHT22;25969;49.970;11.062;2022-08-21T16:41:36;34.50;31.50
40249;DHT22;25969;49.970;11.062;2022-08-21T16:51:37;31.60;37.10
40249;DHT22;25969;49.970;11.062;2022-08-21T17:01:38;31.90;37.70
40249;DHT22;25969;49.970;11.062;2022-08-21T17:11:45;33.70;33.10
40249;DHT22;25969;49.970;11.062;2022-08-21T17:21:48;33.10;33.70
40249;DHT22;25969;49.970;11.062;2022-08-21T17:31:49;29.40;40.50
40249;DHT22;25969;49.970;11.062;2022-08-21T17:41:50;28.40;42.10
40249;DHT22;25969;49.970;11.062;2022-08-21T17:51:52;27.70;43.40
40249;DHT22;25969;49.970;11.062;2022-08-21T18:01:53;26.30;49.90
40249;DHT22;25969;49.970;11.062;2022-08-21T18:12:00;24.40;56.50
40249;DHT22;25969;49.970;11.062;2022-08-21T18:22:01;23.30;59.70
40249;DHT22;25969;49.970;11.062;2022-08-21T18:32:06;22.20;62.10
40249;DHT22;25969;49.970;11.062;2022-08-21T18:42:10;21.80;63.30
40249;DHT22;25969;49.970;11.062;2022-08-21T18:52:11;20.90;66.90
40249;DHT22;25969;49.970;11.062;2022-08-21T19:02:11;20.60;68.00
40249;DHT22;25969;49.970;11.062;2022-08-21T19:12:17;20.60;69.00
40249;DHT22;25969;49.970;11.062;2022-08-21T19:22:20;20.50;70.20
40249;DHT22;25969;49.970;11.062;2022-08-21T19:32:20;20.20;72.30
40249;DHT22;25969;49.970;11.062;2022-08-21T19:42:21;20.10;68.70
40249;DHT22;25969;49.970;11.062;2022-08-21T19:52:23;20.60;67.20
40249;DHT22;25969;49.970;11.062;2022-08-21T20:02:24;20.80;69.30
40249;DHT22;25969;49.970;11.062;2022-08-21T20:12:25;20.50;72.10
40249;DHT22;25969;49.970;11.062;2022-08-21T20:22:26;20.30;74.60
40249;DHT22;25969;49.970;11.062;2022-08-21T20:32:27;20.10;77.30
40249;DHT22;25969;49.970;11.062;2022-08-21T20:42:27;20.00;79.50
40249;DHT22;25969;49.970;11.062;2022-08-21T20:52:32;19.90;81.50
40249;DHT22;25969;49.970;11.062;2022-08-21T21:12:53;19.70;84.80
40249;DHT22;25969;49.970;11.062;2022-08-21T21:23:07;19.60;86.40
40249;DHT22;25969;49.970;11.062;2022-08-21T21:33:12;19.40;88.30
